Time;durP1;ratioP1;P1;durP2;ratioP2;P2;SDS_P1;SDS_P2;PMS_P1;PMS_P2;Temp;Humidity;BMP_temperature;BMP_pressure;BME280_temperature;BME280_humidity;BME280_pressure;Samples;Min_cycle;Max_cycle;Signal;HPM_P1;HPM_P2
2023/08/13 00:01:32;;;;;;;5.93;1.48;;;17.70;99.90;;;;;;5059358;28;20541;-34
2023/08/13 00:03:58;;;;;;;9.15;1.48;;;17.70;99.90;;;;;;5059553;28;20044;-34
2023/08/13 00:06:23;;;;;;;9.00;1.60;;;17.70;99.90;;;;;;5060212;28;20417;-34
2023/08/13 00:08:49;;;;;;;4.55;1.20;;;17.70;99.90;;;;;;5051702;28;20417;-34
2023/08/13 00:11:15;;;;;;;9.55;1.98;;;17.70;99.90;;;;;;5060724;28;20052;-34
2023/08/13 00:13:41;;;;;;;7.07;1.67;;;17.60;99.90;;;;;;5060505;28;20057;-34
2023/08/13 00:16:08;;;;;;;6.28;1.58;;;17.60;99.90;;;;;;5061612;28;20067;-34
2023/08/13 00:18:34;;;;;;;4.78;1.20;;;17.50;99.90;;;;;;5059709;28;20084;-34
2023/08/13 00:20:59;;;;;;;8.23;1.50;;;17.50;99.90;;;;;;5052926;28;20085;-34
2023/08/13 00:23:25;;;;;;;6.30;1.20;;;17.40;99.90;;;;;;5062768;28;20044;-34
2023/08/13 00:25:51;;;;;;;5.50;0.90;;;17.40;99.90;;;;;;5051861;28;20045;-34
2023/08/13 00:28:17;;;;;;;7.45;1.52;;;17.30;99.90;;;;;;5044915;28;20054;-34
2023/08/13 00:30:43;;;;;;;9.07;1.80;;;17.30;99.90;;;;;;5054403;28;20049;-34
2023/08/13 00:33:09;;;;;;;7.45;1.58;;;17.30;99.90;;;;;;5049894;28;20055;-34
2023/08/13 00:35:34;;;;;;;6.55;1.30;;;17.30;99.90;;;;;;5062967;28;20049;-34
2023/08/13 00:38:00;;;;;;;4.85;1.48;;;17.30;99.90;;;;;;5052424;28;20525;-34
2023/08/13 00:40:25;;;;;;;8.00;1.25;;;17.20;99.90;;;;;;5049092;28;20413;-34
2023/08/13 00:42:52;;;;;;;7.80;1.48;;;17.20;99.90;;;;;;5062514;28;20098;-34
2023/08/13 00:45:18;;;;;;;11.27;1.30;;;17.10;99.90;;;;;;5051889;28;20071;-34
2023/08/13 00:47:44;;;;;;;7.30;1.52;;;17.10;99.90;;;;;;5059311;28;20083;-34
2023/08/13 00:50:11;;;;;;;5.53;1.20;;;17.00;99.90;;;;;;5057008;28;20650;-34
2023/08/13 00:52:37;;;;;;;7.97;1.70;;;17.00;99.90;;;;;;5060476;28;21143;-34
2023/08/13 00:55:03;;;;;;;6.25;1.35;;;16.90;99.90;;;;;;5063301;28;20489;-34
2023/08/13 00:57:30;;;;;;;6.70;1.60;;;16.90;99.90;;;;;;5066152;28;20044;-34
2023/08/13 00:59:57;;;;;;;5.82;1.50;;;16.90;99.90;;;;;;5066289;28;20139;-34
2023/08/13 01:02:23;;;;;;;7.90;1.60;;;16.90;99.90;;;;;;5067554;28;20049;-34
2023/08/13 01:04:49;;;;;;;8.25;2.00;;;16.90;99.90;;;;;;5064328;28;20072;-34
2023/08/13 01:07:32;;;;;;;7.28;1.50;;;16.90;99.90;;;;;;5062799;28;20521;-34
2023/08/13 01:10:23;;;;;;;5.60;1.42;;;16.80;99.90;;;;;;5048391;28;20080;-34
2023/08/13 01:13:16;;;;;;;9.52;1.30;;;16.80;99.90;;;;;;5065239;28;20048;-34
2023/08/13 01:15:43;;;;;;;;;;;16.80;99.90;;;;;;5060248;28;20145;-34
2023/08/13 01:18:10;;;;;;;6.03;1.55;;;16.70;99.90;;;;;;5063887;28;20006;-34
2023/08/13 01:20:38;;;;;;;5.88;1.52;;;16.70;99.90;;;;;;5061481;28;20056;-34
2023/08/13 01:23:04;;;;;;;6.72;1.40;;;16.70;99.90;;;;;;5058029;28;20076;-34
2023/08/13 01:25:31;;;;;;;6.88;1.70;;;16.60;99.90;;;;;;5062218;28;20049;-34
2023/08/13 01:28:03;;;;;;;8.70;1.75;;;16.60;99.90;;;;;;5060593;28;20071;-34
2023/08/13 01:30:46;;;;;;;6.57;1.90;;;16.60;99.90;;;;;;5068555;28;20052;-34
2023/08/13 01:33:18;;;;;;;5.90;1.25;;;16.60;99.90;;;;;;5066412;28;20072;-34
2023/08/13 01:35:44;;;;;;;;;;;16.60;99.90;;;;;;5068116;28;20399;-34
2023/08/13 01:38:10;;;;;;;4.53;1.73;;;16.60;99.90;;;;;;5062524;28;19931;-34
2023/08/13 01:40:36;;;;;;;7.15;1.27;;;16.60;99.90;;;;;;5063561;28;20083;-34
2023/08/13 01:43:02;;;;;;;11.10;1.80;;;16.60;99.90;;;;;;5064685;28;20569;-34
2023/08/13 01:45:28;;;;;;;7.18;1.67;;;16.50;99.90;;;;;;5066444;28;20048;-34
2023/08/13 01:47:53;;;;;;;8.13;1.65;;;16.60;99.90;;;;;;5066443;28;20052;-34
2023/08/13 01:50:20;;;;;;;9.48;1.50;;;16.50;99.90;;;;;;5063759;28;20422;-34
2023/08/13 01:52:46;;;;;;;9.45;1.60;;;16.50;99.90;;;;;;5067818;28;20047;-34
2023/08/13 01:55:12;;;;;;;9.63;2.10;;;16.50;99.90;;;;;;5066564;28;20056;-34
2023/08/13 01:57:38;;;;;;;9.40;1.50;;;16.60;99.90;;;;;;5055253;28;20052;-34
2023/08/13 02:00:06;;;;;;;7.07;1.50;;;16.60;99.90;;;;;;5039111;28;20404;-34
2023/08/13 02:02:33;;;;;;;4.75;1.23;;;16.60;99.90;;;;;;5047140;28;20060;-34
2023/08/13 02:04:59;;;;;;;7.47;1.67;;;16.50;99.90;;;;;;5054743;28;20057;-34
2023/08/13 02:07:25;;;;;;;8.30;1.58;;;16.50;99.90;;;;;;5034805;28;20600;-34
2023/08/13 02:09:50;;;;;;;7.57;2.50;;;16.50;99.90;;;;;;5057448;28;20056;-34
2023/08/13 02:12:16;;;;;;;11.07;2.00;;;16.50;99.90;;;;;;5060586;28;20060;-34
2023/08/13 02:14:42;;;;;;;9.15;1.73;;;16.50;99.90;;;;;;5053606;28;20052;-34
2023/08/13 02:17:12;;;;;;;9.23;1.45;;;16.50;99.90;;;;;;5059420;28;20064;-34
2023/08/13 02:19:39;;;;;;;4.50;1.40;;;16.50;99.90;;;;;;5057604;28;20048;-34
2023/08/13 02:22:06;;;;;;;8.20;1.50;;;16.50;99.90;;;;;;5059336;28;20048;-34
2023/08/13 02:24:31;;;;;;;5.97;1.27;;;16.40;99.90;;;;;;5061774;28;20052;-34
2023/08/13 02:26:57;;;;;;;8.65;1.63;;;16.40;99.90;;;;;;5062395;28;20135;-34
2023/08/13 02:29:23;;;;;;;6.50;1.40;;;16.40;99.90;;;;;;5073465;28;20064;-34
2023/08/13 02:31:48;;;;;;;9.00;1.52;;;16.40;99.90;;;;;;5066216;28;20048;-34
2023/08/13 02:34:14;;;;;;;7.50;1.20;;;16.40;99.90;;;;;;5065140;28;20059;-34
2023/08/13 02:36:40;;;;;;;10.80;2.38;;;16.40;99.90;;;;;;5055643;28;20436;-34
2023/08/13 02:39:05;;;;;;;8.18;1.50;;;16.40;99.90;;;;;;5063745;28;20425;-34
2023/08/13 02:41:31;;;;;;;9.15;1.40;;;16.30;99.90;;;;;;5053706;28;20523;-34
2023/08/13 02:43:57;;;;;;;8.70;1.88;;;16.30;99.90;;;;;;5063170;28;20049;-34
2023/08/13 02:46:24;;;;;;;11.32;2.00;;;16.30;99.90;;;;;;5063813;28;20048;-34
2023/08/13 02:48:55;;;;;;;5.93;1.25;;;16.20;99.90;;;;;;5064359;28;20068;-34
2023/08/13 02:51:22;;;;;;;5.90;1.35;;;16.20;99.90;;;;;;5064397;28;20071;-34
2023/08/13 02:53:47;;;;;;;5.57;1.38;;;16.20;99.90;;;;;;5063470;28;20502;-34
2023/08/13 02:56:13;;;;;;;7.32;1.52;;;16.20;99.90;;;;;;5052396;28;20152;-34
2023/08/13 02:58:39;;;;;;;7.80;1.63;;;16.10;99.90;;;;;;5061402;28;20056;-34
2023/08/13 03:01:05;;;;;;;5.55;1.35;;;16.10;99.90;;;;;;5048239;28;20045;-34
2023/08/13 03:03:31;;;;;;;8.00;1.35;;;16.10;99.90;;;;;;5063133;28;20045;-34
2023/08/13 03:05:57;;;;;;;5.07;1.23;;;16.00;99.90;;;;;;5065843;28;20109;-34
2023/08/13 03:08:23;;;;;;;6.07;1.20;;;16.00;99.90;;;;;;5062287;28;20410;-34
2023/08/13 03:10:49;;;;;;;3.97;1.23;;;16.00;99.90;;;;;;5066246;28;20071;-34
2023/08/13 03:13:15;;;;;;;6.78;1.20;;;15.90;99.90;;;;;;5059877;28;20056;-34
2023/08/13 03:15:41;;;;;;;7.55;1.30;;;15.90;99.90;;;;;;5051520;28;20056;-34
2023/08/13 03:18:07;;;;;;;7.10;1.52;;;15.90;99.90;;;;;;5060820;28;20082;-34
2023/08/13 03:20:33;;;;;;;4.13;1.23;;;15.90;99.90;;;;;;5065938;28;20391;-34
2023/08/13 03:22:59;;;;;;;9.00;1.90;;;15.90;99.90;;;;;;5062161;28;20808;-34
2023/08/13 03:25:25;;;;;;;6.03;1.50;;;15.90;99.90;;;;;;5062569;28;20037;-34
2023/08/13 03:27:51;;;;;;;5.47;1.40;;;15.90;99.90;;;;;;5062643;28;21598;-34
2023/08/13 03:30:17;;;;;;;6.72;1.30;;;15.90;99.90;;;;;;5060857;28;20089;-34
2023/08/13 03:32:42;;;;;;;6.57;1.48;;;15.90;99.90;;;;;;5061905;28;20121;-35
2023/08/13 03:35:09;;;;;;;9.20;1.50;;;15.90;99.90;;;;;;5062988;28;21610;-34
2023/08/13 03:37:34;;;;;;;8.77;1.45;;;15.80;99.90;;;;;;5059878;28;20048;-34
2023/08/13 03:40:00;;;;;;;6.10;1.60;;;15.80;99.90;;;;;;5059293;28;20052;-35
2023/08/13 03:42:26;;;;;;;7.25;1.80;;;15.70;99.90;;;;;;5053786;28;20060;-35
2023/08/13 03:44:51;;;;;;;5.90;1.40;;;15.70;99.90;;;;;;5060334;28;20049;-34
2023/08/13 03:47:17;;;;;;;6.50;1.63;;;15.70;99.90;;;;;;5058014;28;20044;-35
2023/08/13 03:49:43;;;;;;;9.38;1.85;;;15.70;99.90;;;;;;5060496;28;20072;-35
2023/08/13 03:52:09;;;;;;;7.38;1.40;;;15.70;99.90;;;;;;5062932;28;20636;-35
2023/08/13 03:54:35;;;;;;;4.07;1.20;;;15.70;99.90;;;;;;5059756;28;20053;-35
2023/08/13 03:57:01;;;;;;;8.27;2.08;;;15.80;99.90;;;;;;5040267;28;20059;-35
2023/08/13 03:59:27;;;;;;;5.75;1.50;;;15.80;99.90;;;;;;5044345;28;20041;-35
2023/08/13 04:01:52;;;;;;;8.48;1.73;;;15.80;99.90;;;;;;5052861;28;20055;-35
2023/08/13 04:04:18;;;;;;;8.18;2.13;;;15.90;99.90;;;;;;5063221;28;20508;-34
2023/08/13 04:06:44;;;;;;;8.30;1.75;;;15.90;99.90;;;;;;5063539;28;20056;-35
2023/08/13 04:09:10;;;;;;;10.50;1.75;;;15.90;99.90;;;;;;5066393;28;20055;-35
2023/08/13 04:11:36;;;;;;;5.75;1.90;;;15.90;99.90;;;;;;5057828;28;20056;-35
2023/08/13 04:14:01;;;;;;;6.68;1.60;;;15.90;99.90;;;;;;5041327;28;20056;-34
2023/08/13 04:16:27;;;;;;;6.82;1.80;;;16.00;99.90;;;;;;5047411;28;20496;-35
2023/08/13 04:18:53;;;;;;;6.32;1.52;;;16.00;99.90;;;;;;5062956;28;20569;-35
2023/08/13 04:21:18;;;;;;;5.75;2.38;;;16.00;99.90;;;;;;5059591;28;20406;-35
2023/08/13 04:23:44;;;;;;;7.43;1.77;;;16.00;99.90;;;;;;5060028;28;20106;-35
2023/08/13 04:26:10;;;;;;;6.25;1.50;;;16.00;99.90;;;;;;5061796;28;20510;-34
2023/08/13 04:28:36;;;;;;;5.72;1.90;;;16.00;99.90;;;;;;5074835;28;20110;-35
2023/08/13 04:31:01;;;;;;;5.93;1.77;;;16.10;99.90;;;;;;5062106;28;20121;-34
2023/08/13 04:33:27;;;;;;;7.38;1.83;;;16.10;99.90;;;;;;5061353;28;20052;-35
2023/08/13 04:35:54;;;;;;;6.28;1.63;;;16.10;99.90;;;;;;5060575;28;20076;-35
2023/08/13 04:38:20;;;;;;;7.03;1.75;;;16.10;99.90;;;;;;5060684;28;20939;-35
2023/08/13 04:40:49;;;;;;;10.48;1.90;;;16.10;99.90;;;;;;5065473;28;20052;-35
2023/08/13 04:43:16;;;;;;;8.25;1.90;;;16.10;99.90;;;;;;5063731;28;20067;-34
2023/08/13 04:45:46;;;;;;;6.22;2.25;;;16.00;99.90;;;;;;5046076;28;20048;-35
2023/08/13 04:48:32;;;;;;;6.55;1.73;;;16.00;99.90;;;;;;5059055;28;20048;-34
2023/08/13 04:50:58;;;;;;;6.63;1.90;;;16.00;99.90;;;;;;5052115;28;20134;-34
2023/08/13 04:53:24;;;;;;;8.95;1.80;;;16.00;99.90;;;;;;5062821;28;20041;-35
2023/08/13 04:55:49;;;;;;;6.60;1.80;;;16.00;99.90;;;;;;5066089;28;20040;-35
2023/08/13 04:58:15;;;;;;;9.20;2.13;;;16.00;99.90;;;;;;5062628;28;20044;-35
2023/08/13 05:00:40;;;;;;;5.15;1.67;;;16.00;99.90;;;;;;5065929;28;20040;-35
2023/08/13 05:03:06;;;;;;;6.65;1.77;;;16.00;99.90;;;;;;5049453;28;20049;-35
2023/08/13 05:05:32;;;;;;;7.60;1.48;;;16.00;99.90;;;;;;5064964;28;20438;-35
2023/08/13 05:07:57;;;;;;;7.20;1.77;;;16.10;99.90;;;;;;5053880;28;20060;-34
2023/08/13 05:10:23;;;;;;;9.30;1.85;;;16.10;99.90;;;;;;5062371;28;20056;-35
2023/08/13 05:12:49;;;;;;;6.07;1.65;;;16.10;99.90;;;;;;5065264;28;20064;-35
2023/08/13 05:15:14;;;;;;;5.28;1.60;;;16.10;99.90;;;;;;5057292;28;20053;-34
2023/08/13 05:17:40;;;;;;;7.03;1.38;;;16.10;99.90;;;;;;5055919;28;20430;-34
2023/08/13 05:20:06;;;;;;;6.68;2.03;;;16.10;99.90;;;;;;5046968;28;20079;-35
2023/08/13 05:22:32;;;;;;;7.20;1.63;;;16.10;99.90;;;;;;5065546;28;20056;-34
2023/08/13 05:24:58;;;;;;;8.75;1.90;;;16.20;99.90;;;;;;5063773;28;20051;-34
2023/08/13 05:27:23;;;;;;;7.22;1.90;;;16.20;99.90;;;;;;5063462;28;20041;-35
2023/08/13 05:29:49;;;;;;;4.88;1.40;;;16.20;99.90;;;;;;5061050;28;20056;-35
2023/08/13 05:32:16;;;;;;;8.18;1.80;;;16.30;99.90;;;;;;5062418;28;20055;-34
2023/08/13 05:34:43;;;;;;;5.70;1.40;;;16.30;99.90;;;;;;5061869;28;20622;-35
2023/08/13 05:37:08;;;;;;;7.10;1.30;;;16.30;99.90;;;;;;5054117;28;20398;-35
2023/08/13 05:39:34;;;;;;;7.55;1.67;;;16.30;99.90;;;;;;5066745;28;20048;-35
2023/08/13 05:42:00;;;;;;;5.82;1.20;;;16.40;99.90;;;;;;5054491;28;20596;-35
2023/08/13 05:44:25;;;;;;;5.90;1.60;;;16.40;99.90;;;;;;5053973;28;20205;-35
2023/08/13 05:46:51;;;;;;;6.10;1.52;;;16.40;99.90;;;;;;5061491;28;20053;-34
2023/08/13 05:49:16;;;;;;;6.97;1.58;;;16.40;99.90;;;;;;5065199;28;20045;-34
2023/08/13 05:51:42;;;;;;;6.38;1.65;;;16.40;99.90;;;;;;5056533;28;20079;-35
2023/08/13 05:54:08;;;;;;;8.02;1.90;;;16.40;99.90;;;;;;5058543;28;20060;-35
2023/08/13 05:56:37;;;;;;;6.47;1.83;;;16.50;99.90;;;;;;5059242;28;20485;-34
2023/08/13 05:59:02;;;;;;;5.88;2.10;;;16.50;99.90;;;;;;5065770;28;20143;-35
2023/08/13 06:01:28;;;;;;;8.30;1.52;;;16.60;99.90;;;;;;5063061;28;20045;-35
2023/08/13 06:03:54;;;;;;;6.40;1.50;;;16.60;99.90;;;;;;5062765;28;20335;-35
2023/08/13 06:06:20;;;;;;;5.90;1.60;;;16.70;99.90;;;;;;5059120;28;20080;-34
2023/08/13 06:08:46;;;;;;;9.75;1.70;;;16.80;99.90;;;;;;5064807;28;20056;-34
2023/08/13 06:11:12;;;;;;;12.02;1.85;;;16.80;99.90;;;;;;5063276;28;20056;-35
2023/08/13 06:13:38;;;;;;;6.65;2.03;;;16.90;99.90;;;;;;5063809;28;20045;-35
2023/08/13 06:16:06;;;;;;;8.23;1.70;;;16.90;99.90;;;;;;5039185;28;21167;-34
2023/08/13 06:18:32;;;;;;;6.20;1.60;;;17.00;99.90;;;;;;5061764;28;20503;-35
2023/08/13 06:20:58;;;;;;;7.70;1.88;;;17.10;99.90;;;;;;5061718;28;20482;-35
2023/08/13 06:23:24;;;;;;;7.90;1.75;;;17.20;99.90;;;;;;5062239;28;20049;-35
2023/08/13 06:25:49;;;;;;;7.10;1.58;;;17.20;99.90;;;;;;5063627;28;20086;-34
2023/08/13 06:28:15;;;;;;;6.05;1.80;;;17.30;99.90;;;;;;5063239;28;20529;-34
2023/08/13 06:30:44;;;;;;;5.60;1.67;;;17.40;99.90;;;;;;5062705;28;20111;-35
2023/08/13 06:33:09;;;;;;;8.63;1.88;;;17.40;99.90;;;;;;5051454;28;20425;-34
2023/08/13 06:35:35;;;;;;;5.53;1.60;;;17.50;99.90;;;;;;5063228;28;20051;-35
2023/08/13 06:38:00;;;;;;;6.25;1.85;;;17.40;99.90;;;;;;5063961;28;21289;-35
2023/08/13 06:40:26;;;;;;;6.93;1.48;;;17.40;99.90;;;;;;5062583;28;20424;-35
2023/08/13 06:42:52;;;;;;;5.63;1.20;;;17.50;99.90;;;;;;5062376;28;20106;-35
2023/08/13 06:45:19;;;;;;;6.25;1.55;;;17.60;99.90;;;;;;5059681;28;20482;-34
2023/08/13 06:47:45;;;;;;;10.68;1.45;;;17.60;99.90;;;;;;5055764;28;20056;-34
2023/08/13 06:50:10;;;;;;;6.00;1.60;;;17.60;99.90;;;;;;5062168;28;20044;-35
2023/08/13 06:52:36;;;;;;;7.43;1.60;;;17.60;99.90;;;;;;5061427;28;20060;-34
2023/08/13 06:55:02;;;;;;;5.70;1.40;;;17.50;99.90;;;;;;5063909;28;21624;-34
2023/08/13 06:57:28;;;;;;;7.07;1.33;;;17.50;99.90;;;;;;5062882;28;20049;-34
2023/08/13 06:59:53;;;;;;;6.20;1.38;;;17.60;99.90;;;;;;5063516;28;20056;-33
2023/08/13 07:02:19;;;;;;;7.47;1.80;;;17.60;99.90;;;;;;5063775;28;20483;-34
2023/08/13 07:04:45;;;;;;;5.05;1.67;;;17.70;99.90;;;;;;5056616;28;20052;-34
2023/08/13 07:07:11;;;;;;;6.35;1.70;;;17.70;99.90;;;;;;5059886;28;20056;-34
2023/08/13 07:09:37;;;;;;;9.55;1.85;;;17.80;99.90;;;;;;5061992;28;20406;-33
2023/08/13 07:12:04;;;;;;;6.78;1.48;;;17.80;99.90;;;;;;5053658;28;20056;-33
2023/08/13 07:14:29;;;;;;;9.00;1.38;;;17.80;99.90;;;;;;5065015;28;20395;-34
2023/08/13 07:16:55;;;;;;;6.15;2.13;;;17.80;99.90;;;;;;5054136;28;20063;-34
2023/08/13 07:19:21;;;;;;;8.20;1.48;;;17.80;99.90;;;;;;5052355;28;20206;-35
2023/08/13 07:21:47;;;;;;;6.38;1.65;;;17.90;99.90;;;;;;5060963;28;20052;-34
2023/08/13 07:24:12;;;;;;;8.07;1.75;;;18.00;99.90;;;;;;5060487;28;20044;-36
2023/08/13 07:26:38;;;;;;;5.65;1.73;;;18.00;99.90;;;;;;5049154;28;20054;-34
2023/08/13 07:29:06;;;;;;;6.75;2.13;;;18.00;99.90;;;;;;5056419;28;20047;-35
2023/08/13 07:31:35;;;;;;;7.13;1.40;;;18.10;99.90;;;;;;5059646;28;20064;-34
2023/08/13 07:34:01;;;;;;;6.32;2.38;;;18.10;99.90;;;;;;5060851;28;20110;-34
2023/08/13 07:36:27;;;;;;;5.75;1.65;;;18.30;99.90;;;;;;5056822;28;20518;-34
2023/08/13 07:38:53;;;;;;;6.43;1.88;;;18.40;99.90;;;;;;5053572;28;20048;-35
2023/08/13 07:41:19;;;;;;;7.68;2.03;;;18.50;99.90;;;;;;5057074;28;20505;-34
2023/08/13 07:43:44;;;;;;;6.15;1.88;;;18.60;99.90;;;;;;5046476;28;20387;-34
2023/08/13 07:46:10;;;;;;;6.32;1.73;;;18.70;99.90;;;;;;5051738;28;20445;-35
2023/08/13 07:48:36;;;;;;;5.47;1.60;;;18.80;99.90;;;;;;5061397;28;20048;-35
2023/08/13 07:51:02;;;;;;;5.50;1.50;;;18.80;99.90;;;;;;5062646;28;21201;-33
2023/08/13 07:53:29;;;;;;;7.35;1.50;;;19.00;99.90;;;;;;5053698;28;20040;-34
2023/08/13 07:55:55;;;;;;;7.43;1.42;;;19.00;99.90;;;;;;5050836;28;20045;-34
2023/08/13 07:58:20;;;;;;;10.23;1.40;;;19.10;99.90;;;;;;5049960;28;20052;-35
2023/08/13 08:00:46;;;;;;;6.38;1.40;;;19.20;99.90;;;;;;5058158;28;20682;-34
2023/08/13 08:03:13;;;;;;;3.85;1.10;;;19.20;99.90;;;;;;5055221;28;20521;-34
2023/08/13 08:05:38;;;;;;;9.73;1.38;;;19.30;99.90;;;;;;5063183;28;20482;-35
2023/08/13 08:08:04;;;;;;;6.43;1.42;;;19.30;99.90;;;;;;5059880;28;20047;-34
2023/08/13 08:10:30;;;;;;;4.47;1.17;;;19.40;99.90;;;;;;5060231;28;20144;-35
2023/08/13 08:12:56;;;;;;;4.15;1.10;;;19.40;99.90;;;;;;5055668;28;20048;-34
2023/08/13 08:15:21;;;;;;;6.15;1.00;;;19.50;99.90;;;;;;5051562;28;20060;-34
2023/08/13 08:17:48;;;;;;;3.67;1.10;;;19.50;99.90;;;;;;5056993;28;20056;-35
2023/08/13 08:20:13;;;;;;;5.00;1.20;;;19.70;99.90;;;;;;5040475;28;20084;-34
2023/08/13 08:22:39;;;;;;;7.20;1.70;;;19.70;99.90;;;;;;5055473;28;20071;-34
2023/08/13 08:25:09;;;;;;;6.20;1.38;;;19.80;99.90;;;;;;5051061;28;20056;-34
2023/08/13 08:27:36;;;;;;;6.78;1.45;;;19.80;99.90;;;;;;5054599;28;20111;-35
2023/08/13 08:30:02;;;;;;;6.53;1.17;;;19.90;99.90;;;;;;5052255;28;20052;-35
2023/08/13 08:32:30;;;;;;;3.58;1.38;;;19.90;99.90;;;;;;5058802;28;20053;-35
2023/08/13 08:34:55;;;;;;;9.70;1.70;;;20.00;99.90;;;;;;5058992;28;20215;-35
2023/08/13 08:37:21;;;;;;;6.75;1.67;;;20.10;99.90;;;;;;5059110;28;20048;-34
2023/08/13 08:39:47;;;;;;;4.20;1.10;;;20.20;99.90;;;;;;5050329;28;20056;-34
2023/08/13 08:42:12;;;;;;;4.38;1.17;;;20.30;99.90;;;;;;5058179;28;20059;-34
2023/08/13 08:44:43;;;;;;;3.92;1.23;;;20.40;99.90;;;;;;5061364;28;20398;-35
2023/08/13 08:47:09;;;;;;;2.72;0.90;;;20.40;99.90;;;;;;5059479;28;20105;-34
2023/08/13 08:49:35;;;;;;;4.72;1.10;;;20.50;99.90;;;;;;5045566;28;20059;-34
2023/08/13 08:52:01;;;;;;;5.50;1.20;;;20.60;99.90;;;;;;5055963;28;20071;-35
2023/08/13 08:54:27;;;;;;;6.35;1.65;;;20.80;99.90;;;;;;5061487;28;20506;-35
2023/08/13 08:56:53;;;;;;;5.38;1.15;;;20.80;99.90;;;;;;5060359;28;20564;-35
2023/08/13 08:59:19;;;;;;;5.38;1.02;;;20.70;99.90;;;;;;5061646;28;20123;-35
2023/08/13 09:01:45;;;;;;;5.20;1.48;;;20.70;99.90;;;;;;5049442;28;20053;-34
2023/08/13 09:04:11;;;;;;;3.33;0.85;;;20.80;99.90;;;;;;5059679;28;20101;-34
2023/08/13 09:06:56;;;;;;;2.55;0.70;;;20.90;99.90;;;;;;5057446;28;20119;-35
2023/08/13 09:09:23;;;;;;;4.40;1.02;;;21.00;99.90;;;;;;5056241;28;20058;-35
2023/08/13 09:11:49;;;;;;;3.97;0.80;;;21.10;99.90;;;;;;5051516;28;20052;-35
2023/08/13 09:14:15;;;;;;;6.20;0.90;;;21.30;99.90;;;;;;5052762;28;20460;-34
2023/08/13 09:16:47;;;;;;;2.30;0.60;;;21.30;99.90;;;;;;5051388;28;20521;-35
2023/08/13 09:19:14;;;;;;;5.82;1.30;;;21.40;99.90;;;;;;5048665;28;20071;-34
2023/08/13 09:21:46;;;;;;;5.40;0.80;;;21.40;99.90;;;;;;5057370;28;20089;-35
2023/08/13 09:24:12;;;;;;;2.95;0.70;;;21.60;99.90;;;;;;5055932;28;20056;-34
2023/08/13 09:26:38;;;;;;;2.95;0.40;;;21.60;99.90;;;;;;5055557;28;20419;-34
2023/08/13 09:29:07;;;;;;;4.22;0.60;;;21.70;99.90;;;;;;5054756;28;20063;-35
2023/08/13 09:31:33;;;;;;;4.53;0.60;;;21.70;99.90;;;;;;5061483;28;20409;-35
2023/08/13 09:34:00;;;;;;;4.28;0.55;;;21.80;99.90;;;;;;5064082;28;20052;-35
2023/08/13 09:36:25;;;;;;;1.38;0.40;;;21.90;99.90;;;;;;5051931;28;20068;-35
2023/08/13 09:38:52;;;;;;;3.28;0.60;;;22.00;99.90;;;;;;5059495;28;20554;-34
2023/08/13 09:41:19;;;;;;;3.95;0.90;;;22.00;99.90;;;;;;5063205;28;20052;-35
2023/08/13 09:43:47;;;;;;;3.60;0.60;;;22.00;99.90;;;;;;5065603;28;20052;-34
2023/08/13 09:46:19;;;;;;;3.80;0.60;;;21.90;99.90;;;;;;5064279;28;20098;-34
2023/08/13 09:48:46;;;;;;;2.72;0.55;;;21.80;99.90;;;;;;5058962;28;20552;-34
2023/08/13 09:51:13;;;;;;;3.63;0.60;;;21.80;99.90;;;;;;5052646;28;20075;-35
2023/08/13 09:53:43;;;;;;;2.92;0.50;;;21.90;99.90;;;;;;5065243;28;20048;-34
2023/08/13 09:56:09;;;;;;;2.90;0.40;;;22.10;99.90;;;;;;5061475;28;20509;-34
2023/08/13 09:58:35;;;;;;;1.83;0.60;;;22.10;99.90;;;;;;5042589;28;20110;-34
2023/08/13 10:01:02;;;;;;;1.13;0.40;;;22.20;99.90;;;;;;5059245;28;20045;-35
2023/08/13 10:03:29;;;;;;;3.65;0.63;;;22.30;99.90;;;;;;5063235;28;20041;-35
2023/08/13 10:05:56;;;;;;;2.40;0.40;;;22.40;99.90;;;;;;5055679;28;20119;-35
2023/08/13 10:08:22;;;;;;;2.72;0.43;;;22.20;99.90;;;;;;5059158;28;20402;-35
2023/08/13 10:10:48;;;;;;;4.72;0.50;;;22.20;99.90;;;;;;5059196;28;20102;-34
2023/08/13 10:13:14;;;;;;;3.03;0.55;;;22.10;99.90;;;;;;5064378;28;20060;-35
2023/08/13 10:15:41;;;;;;;2.70;0.35;;;22.10;99.90;;;;;;5047028;28;20137;-35
2023/08/13 10:18:07;;;;;;;7.95;1.70;;;22.20;99.90;;;;;;5060942;28;20045;-35
2023/08/13 10:20:33;;;;;;;2.35;0.50;;;22.30;99.90;;;;;;5061285;28;20040;-34
2023/08/13 10:23:01;;;;;;;2.13;0.55;;;22.40;99.90;;;;;;5061227;28;20453;-35
2023/08/13 10:25:29;;;;;;;7.88;0.70;;;22.50;99.90;;;;;;5058202;28;20060;-34
2023/08/13 10:27:56;;;;;;;3.08;0.52;;;22.70;99.90;;;;;;5065283;28;20044;-35
2023/08/13 10:30:22;;;;;;;3.58;0.50;;;22.70;99.90;;;;;;5057985;28;20052;-34
2023/08/13 10:32:48;;;;;;;3.08;0.75;;;22.70;99.90;;;;;;5057454;28;20060;-34
2023/08/13 10:35:22;;;;;;;4.07;0.98;;;22.90;99.90;;;;;;5066278;28;20051;-34
2023/08/13 10:37:52;;;;;;;4.15;0.80;;;22.80;99.90;;;;;;5058853;28;20064;-34
2023/08/13 10:40:19;;;;;;;3.20;0.50;;;22.80;99.90;;;;;;5062876;28;20049;-34
2023/08/13 10:42:52;;;;;;;3.60;0.70;;;22.80;99.90;;;;;;5061829;28;20183;-34
2023/08/13 10:45:20;;;;;;;2.53;0.55;;;22.80;99.90;;;;;;5061690;28;20099;-34
2023/08/13 10:47:47;;;;;;;4.35;0.57;;;22.70;99.90;;;;;;5062552;28;20076;-34
2023/08/13 10:50:30;;;;;;;2.75;0.50;;;22.70;99.90;;;;;;5061273;28;20509;-34
2023/08/13 10:53:13;;;;;;;2.72;0.77;;;22.70;99.90;;;;;;5060462;28;20075;-34
2023/08/13 10:55:43;;;;;;;3.95;0.45;;;22.70;99.90;;;;;;5066550;28;20055;-34
2023/08/13 10:58:29;;;;;;;3.88;1.05;;;22.70;99.90;;;;;;5064158;28;20040;-35
2023/08/13 11:01:16;;;;;;;4.35;0.85;;;22.70;99.90;;;;;;5062162;28;20048;-35
2023/08/13 11:03:54;;;;;;;3.47;1.20;;;22.80;99.90;;;;;;5040564;28;20051;-35
2023/08/13 11:06:22;;;;;;;5.22;0.95;;;22.70;99.90;;;;;;5063148;28;20971;-35
2023/08/13 11:08:47;;;;;;;5.97;0.70;;;22.70;99.90;;;;;;5059517;28;20182;-35
2023/08/13 11:11:17;;;;;;;3.55;0.90;;;22.60;99.90;;;;;;5055698;28;20095;-35
2023/08/13 11:13:43;;;;;;;4.90;1.05;;;22.60;99.90;;;;;;5065038;28;20057;-34
2023/08/13 11:16:09;;;;;;;3.38;0.90;;;22.60;99.90;;;;;;5062908;28;20055;-34
2023/08/13 11:18:34;;;;;;;3.85;0.90;;;22.70;99.90;;;;;;5060449;28;20405;-34
2023/08/13 11:21:01;;;;;;;4.28;0.85;;;22.70;99.90;;;;;;5064021;28;20417;-34
2023/08/13 11:23:26;;;;;;;7.03;1.10;;;22.70;99.90;;;;;;5058775;28;20719;-35
2023/08/13 11:25:52;;;;;;;3.13;0.63;;;22.70;99.90;;;;;;5063497;28;20052;-35
2023/08/13 11:28:25;;;;;;;4.90;0.95;;;22.70;99.90;;;;;;5044721;28;20145;-34
2023/08/13 11:31:00;;;;;;;2.42;0.90;;;22.50;99.90;;;;;;5058239;28;20050;-34
2023/08/13 11:33:26;;;;;;;6.10;1.35;;;22.50;99.90;;;;;;5063811;28;20047;-34
2023/08/13 11:35:53;;;;;;;5.40;1.08;;;22.40;99.90;;;;;;5055883;28;20052;-34
2023/08/13 11:38:20;;;;;;;8.02;1.05;;;22.40;99.90;;;;;;5060309;28;20048;-34
2023/08/13 11:40:46;;;;;;;6.32;1.42;;;22.40;99.90;;;;;;5077371;28;20056;-34
2023/08/13 11:43:13;;;;;;;4.75;0.70;;;22.30;99.90;;;;;;5057287;28;20057;-35
2023/08/13 11:45:39;;;;;;;3.33;0.95;;;22.40;99.90;;;;;;5040767;28;20111;-34
2023/08/13 11:48:14;;;;;;;3.55;0.90;;;22.40;99.90;;;;;;5050765;28;20045;-34
2023/08/13 11:50:41;;;;;;;3.75;1.17;;;22.50;99.90;;;;;;5061601;28;20074;-34
2023/08/13 11:53:12;;;;;;;3.55;1.10;;;22.40;99.90;;;;;;5065281;28;20053;-35
2023/08/13 11:55:48;;;;;;;5.20;0.93;;;22.50;99.90;;;;;;5051965;28;20076;-34
2023/08/13 11:58:20;;;;;;;5.28;1.10;;;22.60;99.90;;;;;;5060234;28;20138;-35
2023/08/13 12:00:49;;;;;;;5.47;0.82;;;22.60;99.90;;;;;;5052757;28;20060;-34
2023/08/13 12:03:15;;;;;;;6.88;1.10;;;22.60;99.90;;;;;;5058846;28;20056;-34
2023/08/13 12:05:42;;;;;;;4.22;1.00;;;22.60;99.90;;;;;;5048675;28;20054;-34
2023/08/13 12:08:09;;;;;;;4.30;1.10;;;22.60;99.90;;;;;;5061219;28;20080;-34
2023/08/13 12:10:36;;;;;;;10.95;1.67;;;22.70;99.90;;;;;;5057102;28;20127;-35
2023/08/13 12:13:03;;;;;;;5.45;1.20;;;22.70;99.90;;;;;;5063258;28;20045;-35
2023/08/13 12:15:29;;;;;;;6.22;1.20;;;22.90;99.90;;;;;;5055191;28;20052;-35
2023/08/13 12:17:59;;;;;;;4.72;1.02;;;23.00;99.90;;;;;;5062182;28;20510;-35
2023/08/13 12:20:26;;;;;;;5.68;1.23;;;23.00;99.90;;;;;;5059461;28;20052;-35
2023/08/13 12:22:52;;;;;;;6.75;1.20;;;23.10;99.90;;;;;;5057043;28;20052;-35
2023/08/13 12:25:18;;;;;;;3.78;0.95;;;23.20;99.90;;;;;;5060555;28;20059;-35
2023/08/13 12:27:45;;;;;;;4.22;1.00;;;23.30;99.90;;;;;;5055012;28;20048;-35
2023/08/13 12:30:12;;;;;;;5.10;1.08;;;23.40;99.90;;;;;;5053673;28;20052;-35
2023/08/13 12:32:38;;;;;;;6.40;1.08;;;23.60;99.90;;;;;;5057855;28;20544;-35
2023/08/13 12:35:04;;;;;;;3.63;1.10;;;23.60;99.90;;;;;;5058437;28;20052;-35
2023/08/13 12:37:29;;;;;;;6.28;1.38;;;23.50;99.90;;;;;;5060702;28;20064;-35
2023/08/13 12:39:55;;;;;;;4.97;1.17;;;23.50;99.90;;;;;;5056131;28;20422;-34
2023/08/13 12:42:21;;;;;;;6.85;1.38;;;23.50;99.90;;;;;;5066623;28;20127;-35
2023/08/13 12:44:48;;;;;;;7.25;1.35;;;23.40;99.90;;;;;;5064908;28;20053;-35
2023/08/13 12:47:14;;;;;;;4.68;1.38;;;23.40;99.90;;;;;;5065073;28;20059;-35